Time;durP1;ratioP1;P1;durP2;ratioP2;P2;SDS_P1;SDS_P2;PMS_P1;PMS_P2;Temp;Humidity;BMP_temperature;BMP_pressure;BME280_temperature;BME280_humidity;BME280_pressure;Samples;Min_cycle;Max_cycle;Signal;HPM_P1;HPM_P2
2022/05/18 00:01:22;;;;;;;8.80;3.80;;;;;;;8.44;52.81;98583.55;105726;1277;22726;-90
2022/05/18 00:03:52;;;;;;;7.70;4.80;;;;;;;8.39;53.26;98580.77;105678;1278;24310;-86
2022/05/18 00:06:20;;;;;;;7.30;4.60;;;;;;;8.31;53.56;98582.64;105708;1278;25453;-88
2022/05/18 00:08:48;;;;;;;6.00;4.40;;;;;;;8.24;53.22;98583.65;105850;1277;24491;-88
2022/05/18 00:11:18;;;;;;;9.40;4.20;;;;;;;8.19;53.67;98586.11;105802;1277;22693;-88
2022/05/18 00:13:49;;;;;;;9.70;5.40;;;;;;;8.12;52.94;98582.52;105761;1277;25437;-86
2022/05/18 00:16:18;;;;;;;11.00;4.30;;;;;;;8.08;53.40;98585.61;105672;1277;22537;-90
2022/05/18 00:18:46;;;;;;;8.20;5.90;;;;;;;8.01;53.85;98588.61;107179;1277;22498;-90
2022/05/18 00:21:14;;;;;;;10.40;4.10;;;;;;;7.94;53.82;98590.95;107303;1277;22623;-90
2022/05/18 00:23:42;;;;;;;6.90;4.00;;;;;;;7.89;54.13;98596.51;106058;1277;22620;-89
2022/05/18 00:26:10;;;;;;;7.70;5.00;;;;;;;7.84;53.85;98597.99;105639;1278;24349;-88
2022/05/18 00:28:38;;;;;;;9.80;5.20;;;;;;;7.80;54.11;98607.16;105670;1277;22577;-90
2022/05/18 00:31:06;;;;;;;7.80;5.20;;;;;;;7.77;53.98;98605.65;105594;1278;22692;-90
2022/05/18 00:33:34;;;;;;;9.40;4.80;;;;;;;7.72;54.17;98614.01;105815;1277;22584;-92
2022/05/18 00:36:02;;;;;;;10.20;7.20;;;;;;;7.70;53.80;98611.95;105993;1278;22685;-91
2022/05/18 00:38:30;;;;;;;11.00;5.20;;;;;;;7.69;53.76;98612.70;105986;1280;24210;-90
2022/05/18 00:40:58;;;;;;;7.90;4.70;;;;;;;7.66;54.13;98619.61;105828;1277;24246;-93
2022/05/18 00:43:29;;;;;;;9.40;4.90;;;;;;;7.61;54.22;98620.13;105867;1277;22666;-90
2022/05/18 00:46:00;;;;;;;10.20;5.60;;;;;;;7.56;54.12;98619.67;105925;1278;24226;-92
2022/05/18 00:48:29;;;;;;;7.30;5.00;;;;;;;7.52;54.02;98620.94;105908;1277;24260;-89
2022/05/18 00:51:01;;;;;;;10.20;4.90;;;;;;;7.47;54.32;98628.48;106167;1277;22654;-92
2022/05/18 00:53:36;;;;;;;7.10;4.50;;;;;;;7.42;54.45;98634.08;106304;1277;24397;-92
2022/05/18 00:56:09;;;;;;;10.10;6.00;;;;;;;7.37;54.41;98632.92;106361;1277;25657;-92
2022/05/18 00:58:44;;;;;;;10.60;5.00;;;;;;;7.33;54.59;98639.39;106340;1277;22559;-92
2022/05/18 01:01:13;;;;;;;9.00;4.50;;;;;;;7.29;54.76;98643.07;106107;1276;22561;-90
2022/05/18 01:03:45;;;;;;;9.60;4.50;;;;;;;7.26;54.72;98644.66;105909;1277;22564;-90
2022/05/18 01:06:23;;;;;;;9.30;4.80;;;;;;;7.23;54.54;98650.75;106272;1277;22733;-92
2022/05/18 01:09:01;;;;;;;10.50;4.10;;;;;;;7.20;54.58;98654.00;105894;1277;23200;-88
2022/05/18 01:11:33;;;;;;;15.40;11.60;;;;;;;7.17;54.69;98649.91;106158;1277;25926;-92
2022/05/18 01:14:04;;;;;;;7.60;5.40;;;;;;;7.13;54.68;98655.41;107096;1276;23595;-89
2022/05/18 01:16:31;;;;;;;9.00;5.00;;;;;;;7.11;54.76;98661.16;107797;1276;22638;-90
2022/05/18 01:19:00;;;;;;;6.90;4.20;;;;;;;7.08;54.80;98664.96;109269;1276;22677;-87
2022/05/18 01:21:48;;;;;;;10.20;4.70;;;;;;;7.04;54.85;98667.13;109531;1276;22538;-92
2022/05/18 01:24:33;;;;;;;10.00;4.50;;;;;;;7.01;54.94;98667.48;109008;1276;22549;-90
2022/05/18 01:27:02;;;;;;;10.20;5.60;;;;;;;7.00;54.77;98675.52;108881;1276;22558;-89
2022/05/18 01:29:31;;;;;;;7.50;4.70;;;;;;;7.00;54.53;98679.52;108480;1275;22686;-86
2022/05/18 01:32:03;;;;;;;12.00;5.10;;;;;;;7.00;54.30;98678.39;108932;1276;22575;-85
2022/05/18 01:34:35;;;;;;;7.40;5.10;;;;;;;7.00;54.24;98684.02;106776;1277;22662;-88
2022/05/18 01:37:03;;;;;;;7.10;4.70;;;;;;;6.98;54.20;98688.20;106198;1277;22975;-91
2022/05/18 01:39:36;;;;;;;19.60;4.70;;;;;;;6.95;54.08;98689.40;105939;1276;25353;-87
2022/05/18 01:42:19;;;;;;;9.20;6.40;;;;;;;6.93;53.96;98697.73;106009;1277;22701;-91
2022/05/18 01:44:47;;;;;;;9.50;4.60;;;;;;;6.89;53.97;98702.58;106011;1276;22587;-92
2022/05/18 01:47:15;;;;;;;10.20;4.30;;;;;;;6.87;54.13;98703.74;106235;1276;22617;-93
2022/05/18 01:49:45;;;;;;;15.80;4.20;;;;;;;6.82;53.89;98705.20;106248;1276;22565;-90
2022/05/18 01:52:14;;;;;;;5.70;4.40;;;;;;;6.79;53.68;98706.04;105960;1277;23983;-92
2022/05/18 01:54:46;;;;;;;14.60;6.10;;;;;;;6.76;53.71;98711.20;105890;1276;24494;-87
2022/05/18 01:57:14;;;;;;;8.00;4.60;;;;;;;6.72;53.48;98716.46;106443;1276;25486;-92
2022/05/18 01:59:43;;;;;;;12.40;4.70;;;;;;;6.68;53.38;98719.42;106371;1276;22553;-92
2022/05/18 02:02:12;;;;;;;7.80;4.70;;;;;;;6.66;53.29;98722.02;106328;1276;22556;-90
2022/05/18 02:04:43;;;;;;;6.60;4.00;;;;;;;6.63;52.97;98721.95;106489;1277;25347;-92
2022/05/18 02:07:11;;;;;;;8.90;4.50;;;;;;;6.59;53.03;98726.35;106615;1276;22848;-88
2022/05/18 02:09:40;;;;;;;10.20;5.70;;;;;;;6.55;53.08;98731.67;106167;1276;24229;-89
2022/05/18 02:12:10;;;;;;;11.20;5.20;;;;;;;6.50;52.89;98730.81;106162;1276;24259;-88
2022/05/18 02:14:38;;;;;;;8.50;4.20;;;;;;;6.46;53.09;98734.67;106240;1276;22720;-90
2022/05/18 02:17:05;;;;;;;10.40;4.30;;;;;;;6.43;53.00;98734.16;106454;1276;22757;-88
2022/05/18 02:19:34;;;;;;;7.50;4.40;;;;;;;6.40;52.85;98739.69;106422;1276;22567;-91
2022/05/18 02:22:02;;;;;;;8.00;3.90;;;;;;;6.35;52.61;98737.30;106718;1277;22678;-91
2022/05/18 02:24:30;;;;;;;8.00;4.80;;;;;;;6.31;52.88;98741.04;106942;1277;24217;-89
2022/05/18 02:26:58;;;;;;;7.90;5.20;;;;;;;6.28;52.54;98741.86;106842;1277;24228;-87
2022/05/18 02:29:26;;;;;;;8.90;5.70;;;;;;;6.26;52.48;98744.23;107023;1277;22738;-87
2022/05/18 02:31:54;;;;;;;8.40;5.30;;;;;;;6.24;52.71;98747.59;106322;1277;24239;-89
2022/05/18 02:34:22;;;;;;;9.20;5.70;;;;;;;6.21;52.54;98749.32;106064;1276;22796;-85
2022/05/18 02:36:50;;;;;;;8.40;5.10;;;;;;;6.18;52.70;98750.52;105963;1276;24495;-87
2022/05/18 02:39:21;;;;;;;8.50;4.80;;;;;;;6.16;52.47;98749.20;105844;1277;22555;-89
2022/05/18 02:41:50;;;;;;;12.40;5.50;;;;;;;6.13;52.45;98754.90;105931;1276;22574;-88
2022/05/18 02:44:18;;;;;;;7.70;4.10;;;;;;;6.09;52.46;98753.84;105894;1276;22630;-90
2022/05/18 02:46:46;;;;;;;11.90;5.40;;;;;;;6.06;52.33;98757.96;106115;1276;22553;-90
2022/05/18 02:49:17;;;;;;;9.60;6.20;;;;;;;6.03;52.47;98764.08;106218;1276;22632;-90
2022/05/18 02:51:45;;;;;;;10.50;6.10;;;;;;;6.00;52.50;98767.56;106134;1276;22564;-90
2022/05/18 02:57:03;;;;;;;11.10;5.20;;;;;;;5.93;52.44;98784.22;106132;1276;22561;-90
2022/05/18 02:59:31;;;;;;;7.30;4.40;;;;;;;5.90;52.09;98786.30;105892;1276;24404;-89
2022/05/18 03:02:00;;;;;;;10.40;5.70;;;;;;;5.87;52.17;98792.83;105938;1277;23068;-90
2022/05/18 03:04:32;;;;;;;8.10;6.80;;;;;;;5.85;52.25;98792.64;106328;1276;23002;-90
2022/05/18 03:07:00;;;;;;;10.10;5.70;;;;;;;5.82;52.31;98792.93;106253;1276;24223;-89
2022/05/18 03:09:28;;;;;;;10.10;4.40;;;;;;;5.80;52.34;98793.75;106952;1276;25969;-88
2022/05/18 03:11:56;;;;;;;13.80;5.30;;;;;;;5.76;52.39;98802.52;107947;1276;23399;-87
2022/05/18 03:14:25;;;;;;;9.80;3.90;;;;;;;5.74;52.29;98803.23;107523;1276;22680;-91
2022/05/18 03:16:54;;;;;;;12.10;5.40;;;;;;;5.72;52.66;98812.98;106222;1277;22565;-90
2022/05/18 03:19:23;;;;;;;9.00;5.30;;;;;;;5.69;52.50;98814.45;106182;1276;22569;-91
2022/05/18 03:24:38;;;;;;;8.90;5.30;;;;;;;5.66;52.67;98815.73;106045;1276;25282;-89
2022/05/18 03:27:06;;;;;;;8.10;5.20;;;;;;;5.65;52.55;98821.67;105966;1276;22615;-86
2022/05/18 03:29:34;;;;;;;9.30;5.30;;;;;;;5.64;52.75;98827.95;106084;1276;23624;-87
2022/05/18 03:32:04;;;;;;;7.10;5.20;;;;;;;5.64;52.54;98836.92;105878;1276;22746;-89
2022/05/18 03:34:33;;;;;;;9.30;6.30;;;;;;;5.63;52.53;98838.09;106026;1277;24571;-88
2022/05/18 03:37:02;;;;;;;10.00;6.80;;;;;;;5.63;52.58;98836.87;105961;1276;23223;-89
2022/05/18 03:39:30;;;;;;;10.30;5.60;;;;;;;5.64;52.79;98841.44;105921;1276;24420;-89
2022/05/18 03:41:58;;;;;;;6.20;5.50;;;;;;;5.65;53.04;98843.70;105839;1276;23252;-86
2022/05/18 03:44:26;;;;;;;16.20;10.30;;;;;;;5.65;52.95;98846.27;106169;1276;22556;-89
2022/05/18 03:46:56;;;;;;;7.80;5.70;;;;;;;5.66;52.83;98847.50;106110;1276;22643;-89
2022/05/18 03:49:24;;;;;;;9.60;5.60;;;;;;;5.66;52.52;98849.54;105894;1276;22607;-90
2022/05/18 03:51:52;;;;;;;7.80;4.40;;;;;;;5.68;52.96;98854.33;105908;1277;24436;-87
2022/05/18 03:54:19;;;;;;;11.50;7.10;;;;;;;5.72;52.92;98855.40;106070;1276;22498;-92
2022/05/18 03:56:47;;;;;;;7.20;5.60;;;;;;;5.75;52.68;98859.29;106156;1276;22724;-90
2022/05/18 03:59:15;;;;;;;8.60;4.70;;;;;;;5.74;53.07;98860.36;105992;1276;23199;-89
2022/05/18 04:01:43;;;;;;;8.70;4.70;;;;;;;5.81;53.09;98866.13;105910;1276;24791;-91
2022/05/18 04:04:12;;;;;;;7.50;5.10;;;;;;;5.85;52.82;98870.42;106026;1276;22613;-90
2022/05/18 04:06:39;;;;;;;7.00;4.40;;;;;;;5.90;53.17;98868.68;105904;1276;22602;-91
2022/05/18 04:09:07;;;;;;;18.00;16.10;;;;;;;5.96;53.07;98875.48;107620;1276;22708;-88
2022/05/18 04:11:35;;;;;;;11.40;10.20;;;;;;;6.04;53.08;98879.08;108221;1276;26472;-87
2022/05/18 04:14:03;;;;;;;8.30;5.90;;;;;;;6.10;52.90;98879.23;107230;1276;23852;-92
2022/05/18 04:16:31;;;;;;;10.90;5.80;;;;;;;6.19;53.02;98874.81;106316;1276;22546;-90
2022/05/18 04:18:59;;;;;;;8.70;4.80;;;;;;;6.28;53.10;98876.48;106413;1276;22592;-90
2022/05/18 04:21:27;;;;;;;6.50;5.50;;;;;;;6.36;52.93;98876.98;105898;1276;24245;-91
2022/05/18 04:23:55;;;;;;;7.00;4.50;;;;;;;6.44;52.97;98884.37;105912;1276;22577;-91
2022/05/18 04:26:23;;;;;;;10.10;4.30;;;;;;;6.53;52.90;98888.38;106188;1276;24221;-91
2022/05/18 04:28:51;;;;;;;9.50;4.50;;;;;;;6.60;52.83;98888.59;105957;1276;22700;-90
2022/05/18 04:31:19;;;;;;;6.70;4.30;;;;;;;6.68;52.86;98892.66;106051;1276;22559;-90
2022/05/18 04:33:47;;;;;;;11.00;6.10;;;;;;;6.77;52.89;98894.09;105913;1277;24637;-91
2022/05/18 04:36:15;;;;;;;12.80;5.10;;;;;;;6.86;52.71;98893.77;105870;1276;24085;-93
2022/05/18 04:38:43;;;;;;;7.60;5.10;;;;;;;6.94;52.81;98894.14;105961;1276;22554;-91
2022/05/18 04:41:11;;;;;;;7.20;5.40;;;;;;;7.03;52.55;98898.21;105957;1276;22863;-89
2022/05/18 04:43:39;;;;;;;7.60;4.60;;;;;;;7.10;52.53;98902.41;105955;1276;24198;-90
2022/05/18 04:46:07;;;;;;;9.00;5.90;;;;;;;7.17;52.63;98905.23;106549;1276;23536;-90
2022/05/18 04:48:35;;;;;;;9.70;4.90;;;;;;;7.25;52.45;98905.64;107007;1276;25271;-91
2022/05/18 04:51:05;;;;;;;8.10;3.90;;;;;;;7.32;52.42;98908.28;109037;1276;22643;-86
2022/05/18 04:53:36;;;;;;;9.80;4.10;;;;;;;7.43;52.33;98909.46;109116;1276;23839;-88
2022/05/18 04:56:08;;;;;;;9.80;5.00;;;;;;;7.54;52.34;98914.46;109195;1275;22973;-84
2022/05/18 04:58:36;;;;;;;6.50;3.90;;;;;;;7.64;52.17;98918.30;108369;1276;22563;-88
2022/05/18 05:01:07;;;;;;;6.10;4.30;;;;;;;7.73;52.28;98922.41;107982;1276;22560;-90
2022/05/18 05:03:37;;;;;;;10.40;5.30;;;;;;;7.83;52.03;98925.71;107767;1276;22495;-91
2022/05/18 05:06:06;;;;;;;10.40;5.60;;;;;;;7.90;51.76;98927.77;107226;1276;22553;-89
2022/05/18 05:08:35;;;;;;;11.60;5.10;;;;;;;7.96;51.79;98925.83;108311;1276;22535;-89
2022/05/18 05:11:06;;;;;;;7.50;4.50;;;;;;;8.05;51.60;98933.63;107300;1276;22473;-89
2022/05/18 05:13:35;;;;;;;8.40;4.10;;;;;;;8.12;51.49;98938.14;106297;1276;22533;-94
2022/05/18 05:16:06;;;;;;;9.30;4.20;;;;;;;8.19;51.28;98938.34;107224;1276;22688;-93
2022/05/18 05:18:35;;;;;;;11.10;4.00;;;;;;;8.25;51.14;98940.11;106806;1276;22878;-92
2022/05/18 05:21:05;;;;;;;9.80;4.40;;;;;;;8.28;50.55;98942.60;106496;1276;25322;-92
2022/05/18 05:23:33;;;;;;;8.70;3.90;;;;;;;8.30;50.43;98945.67;106420;1276;25408;-92
2022/05/18 05:26:01;;;;;;;7.00;4.10;;;;;;;8.36;50.40;98951.95;106668;1276;25364;-94
2022/05/18 05:28:30;;;;;;;9.60;4.30;;;;;;;8.43;50.23;98949.45;107672;1276;22556;-92
2022/05/18 05:31:06;;;;;;;7.90;4.20;;;;;;;8.52;50.26;98952.89;106899;1276;25357;-92
2022/05/18 05:33:37;;;;;;;8.00;3.80;;;;;;;8.60;50.16;98961.48;106268;1277;24224;-91
2022/05/18 05:36:07;;;;;;;10.90;7.40;;;;;;;8.70;49.90;98964.65;106266;1276;25349;-89
2022/05/18 05:38:35;;;;;;;6.90;4.70;;;;;;;8.74;49.80;98966.40;106354;1276;26654;-89
2022/05/18 05:41:03;;;;;;;6.20;3.70;;;;;;;8.81;49.67;98967.84;106416;1277;22711;-92
2022/05/18 05:43:32;;;;;;;8.70;3.90;;;;;;;8.88;49.78;98966.20;106406;1276;22481;-91
2022/05/18 05:46:06;;;;;;;9.60;3.90;;;;;;;9.00;49.80;98974.21;106151;1276;25126;-92
2022/05/18 05:48:34;;;;;;;11.30;4.80;;;;;;;9.11;49.82;98978.20;106083;1276;24241;-93
2022/05/18 05:51:05;;;;;;;8.60;3.60;;;;;;;9.22;49.35;98977.70;106383;1276;22585;-93
2022/05/18 05:53:33;;;;;;;7.60;3.70;;;;;;;9.27;48.85;98985.79;108027;1264;22475;-92
2022/05/18 05:56:02;;;;;;;6.20;3.80;;;;;;;9.38;49.25;98983.73;106745;1275;25313;-91
2022/05/18 05:58:33;;;;;;;12.00;3.60;;;;;;;9.49;48.81;98988.34;106470;1274;22745;-88
2022/05/18 06:01:06;;;;;;;9.00;3.60;;;;;;;9.55;48.66;98988.84;106469;1274;22531;-92
2022/05/18 06:03:35;;;;;;;9.20;3.80;;;;;;;9.61;48.44;98994.07;108457;1274;23866;-93
2022/05/18 06:06:05;;;;;;;6.70;3.90;;;;;;;9.69;48.88;98996.63;107185;1274;22824;-93
2022/05/18 06:08:33;;;;;;;8.60;4.00;;;;;;;9.77;48.51;98999.12;106495;1276;22529;-90
2022/05/18 06:11:01;;;;;;;8.00;4.10;;;;;;;9.85;48.55;99002.58;106413;1274;25353;-92
2022/05/18 06:13:29;;;;;;;10.40;4.10;;;;;;;9.94;48.48;99006.84;106037;1278;22653;-93
2022/05/18 06:15:58;;;;;;;8.10;4.30;;;;;;;10.01;48.49;99012.94;106188;1274;23074;-91
2022/05/18 06:18:26;;;;;;;8.60;4.60;;;;;;;10.09;48.41;99015.96;106711;1274;24203;-92
2022/05/18 06:20:54;;;;;;;6.80;4.10;;;;;;;10.16;48.04;99017.48;107910;1274;22540;-90
2022/05/18 06:23:23;;;;;;;5.60;3.40;;;;;;;10.20;47.94;99020.98;107467;1275;24196;-91
2022/05/18 06:25:51;;;;;;;7.40;3.80;;;;;;;10.25;47.56;99022.98;107555;1274;22811;-92
2022/05/18 06:28:19;;;;;;;8.10;3.80;;;;;;;10.30;47.76;99019.66;108200;1274;22678;-90
2022/05/18 06:30:47;;;;;;;11.30;4.30;;;;;;;10.43;47.84;99024.14;106858;1274;22553;-92
2022/05/18 06:33:15;;;;;;;11.10;4.90;;;;;;;10.55;47.75;99026.61;106197;1276;22507;-90
2022/05/18 06:35:44;;;;;;;11.50;4.90;;;;;;;10.65;47.25;99026.51;107702;1276;22560;-87
2022/05/18 06:38:15;;;;;;;12.50;4.10;;;;;;;10.71;45.97;99026.39;108340;1276;22857;-92
2022/05/18 06:43:30;;;;;;;6.90;3.60;;;;;;;10.69;45.78;99030.60;107525;1276;25240;-90
2022/05/18 06:46:00;;;;;;;9.40;3.40;;;;;;;10.71;45.69;99033.66;108502;1276;22833;-91
2022/05/18 06:48:34;;;;;;;7.30;4.20;;;;;;;10.78;45.69;99032.79;108742;1276;22968;-93
2022/05/18 06:51:17;;;;;;;6.60;3.60;;;;;;;10.88;45.49;99036.12;107889;1276;22564;-92
2022/05/18 06:53:47;;;;;;;6.40;3.50;;;;;;;10.96;45.26;99035.17;106494;1276;22610;-91
2022/05/18 06:56:15;;;;;;;7.80;4.30;;;;;;;11.04;45.78;99042.11;106599;1276;24331;-90
2022/05/18 06:58:43;;;;;;;10.20;3.20;;;;;;;11.17;45.21;99048.07;106257;1276;24037;-93
2022/05/18 07:01:18;;;;;;;5.60;3.10;;;;;;;11.24;44.58;99056.16;106212;1276;25363;-85
2022/05/18 07:03:47;;;;;;;11.50;7.60;;;;;;;11.31;44.93;99063.30;106358;1276;24070;-90
2022/05/18 07:06:24;;;;;;;6.90;3.70;;;;;;;11.40;44.34;99063.75;106131;1276;22651;-94
2022/05/18 07:08:52;;;;;;;7.40;3.40;;;;;;;11.47;44.24;99062.28;107447;1276;22647;-92
2022/05/18 07:11:22;;;;;;;4.00;2.90;;;;;;;11.56;44.15;99068.23;107218;1276;25353;-94
2022/05/18 07:13:52;;;;;;;9.90;2.70;;;;;;;11.69;44.10;99066.55;106328;1276;25366;-89
2022/05/18 07:16:23;;;;;;;6.80;2.80;;;;;;;11.77;43.80;99071.66;106231;1276;22500;-91
2022/05/18 07:18:51;;;;;;;3.60;2.50;;;;;;;11.84;42.44;99071.02;106234;1276;23937;-89
2022/05/18 07:21:21;;;;;;;4.80;3.00;;;;;;;11.91;41.59;99070.70;106183;1276;25319;-92
2022/05/18 07:23:49;;;;;;;8.80;3.00;;;;;;;12.03;42.10;99070.95;107276;1276;22581;-92
2022/05/18 07:26:18;;;;;;;6.80;3.20;;;;;;;12.19;40.63;99075.98;107449;1276;22497;-92
2022/05/18 07:28:46;;;;;;;6.00;2.50;;;;;;;12.30;40.77;99079.97;106627;1278;25904;-91
2022/05/18 07:31:15;;;;;;;5.70;2.80;;;;;;;12.37;40.12;99076.89;106052;1276;22618;-93
2022/05/18 07:34:03;;;;;;;6.50;3.40;;;;;;;12.49;40.91;99082.15;105967;1276;24352;-92
2022/05/18 07:36:31;;;;;;;20.20;6.90;;;;;;;12.60;39.75;99077.42;105915;1276;25374;-87
2022/05/18 07:38:59;;;;;;;4.70;2.80;;;;;;;12.62;39.04;99081.84;106083;1276;24219;-89
2022/05/18 07:41:27;;;;;;;4.30;2.60;;;;;;;12.63;39.05;99079.98;105884;1276;22688;-92
2022/05/18 07:43:55;;;;;;;6.40;2.60;;;;;;;12.68;39.45;99083.73;106169;1275;22569;-91
2022/05/18 07:46:23;;;;;;;4.70;2.70;;;;;;;12.76;38.48;99081.30;106213;1275;26658;-89
2022/05/18 07:48:51;;;;;;;7.50;2.80;;;;;;;12.72;37.89;99081.16;106155;1276;22540;-90
2022/05/18 07:51:19;;;;;;;5.40;2.30;;;;;;;12.73;38.05;99086.77;107378;1276;25368;-90
2022/05/18 07:53:46;;;;;;;3.80;2.30;;;;;;;12.78;38.57;99085.77;106286;1276;24046;-90
2022/05/18 07:56:14;;;;;;;6.60;3.40;;;;;;;12.87;38.00;99094.06;106062;1278;22550;-91
2022/05/18 07:58:42;;;;;;;3.30;2.40;;;;;;;13.01;37.86;99096.86;105945;1276;24794;-89
2022/05/18 08:01:10;;;;;;;5.60;2.60;;;;;;;13.09;37.37;99099.81;106395;1276;23374;-88
2022/05/18 08:03:38;;;;;;;6.30;2.50;;;;;;;13.16;37.93;99098.93;105884;1277;22980;-90
2022/05/18 08:06:07;;;;;;;6.40;3.00;;;;;;;13.24;37.10;99100.70;105880;1276;22668;-90
2022/05/18 08:08:35;;;;;;;7.00;2.80;;;;;;;13.32;36.62;99104.15;105890;1276;22604;-91
2022/05/18 08:16:36;;;;;;;8.60;3.20;;;;;;;13.65;36.54;99097.07;106281;1274;22611;-91
2022/05/18 08:19:06;;;;;;;7.60;3.70;;;;;;;13.78;36.39;99098.55;107976;1276;22532;-88
2022/05/18 08:21:34;;;;;;;4.50;2.50;;;;;;;13.94;36.24;99097.52;106051;1277;23949;-88
2022/05/18 08:24:02;;;;;;;6.40;3.30;;;;;;;14.06;35.67;99103.70;105905;1277;24221;-84
2022/05/18 08:26:31;;;;;;;6.10;2.60;;;;;;;14.16;35.48;99104.42;105958;1274;22552;-86
2022/05/18 08:29:01;;;;;;;8.20;2.40;;;;;;;14.16;34.87;99110.72;105950;1277;22606;-87
2022/05/18 08:31:29;;;;;;;3.80;1.70;;;;;;;14.22;35.59;99113.66;105884;1277;22702;-84
2022/05/18 08:33:57;;;;;;;4.60;2.70;;;;;;;14.24;34.59;99113.20;105813;1276;22612;-85
2022/05/18 08:36:26;;;;;;;5.30;3.10;;;;;;;14.23;34.12;99113.38;105907;1278;22880;-86
2022/05/18 08:38:55;;;;;;;10.30;3.60;;;;;;;14.26;34.55;99114.64;105778;1274;26512;-88
2022/05/18 08:41:29;;;;;;;10.50;2.80;;;;;;;14.39;34.77;99114.73;105889;1277;25368;-88
2022/05/18 08:44:00;;;;;;;7.20;2.90;;;;;;;14.50;33.84;99116.68;106140;1275;22874;-86
2022/05/18 08:46:45;;;;;;;9.00;2.10;;;;;;;14.61;34.09;99117.03;106080;1277;22624;-89
2022/05/18 08:49:19;;;;;;;4.10;2.10;;;;;;;14.75;34.54;99119.24;106215;1276;23933;-89
2022/05/18 08:51:57;;;;;;;3.50;1.90;;;;;;;14.87;34.45;99117.92;105866;1277;26644;-87
2022/05/18 08:54:51;;;;;;;6.10;2.10;;;;;;;14.90;33.44;99117.80;105891;1278;22615;-86
2022/05/18 08:57:23;;;;;;;8.20;2.60;;;;;;;14.92;32.66;99113.48;105973;1274;22546;-85
2022/05/18 08:59:56;;;;;;;5.80;2.30;;;;;;;14.94;32.81;99110.52;105923;1275;25552;-84
2022/05/18 09:02:33;;;;;;;5.00;2.60;;;;;;;15.12;32.77;99115.20;105975;1275;22697;-85
2022/05/18 09:05:13;;;;;;;43.70;5.70;;;;;;;15.31;32.95;99112.89;105968;1274;22553;-85
2022/05/18 09:08:06;;;;;;;5.70;2.30;;;;;;;15.47;32.59;99108.31;106000;1274;24430;-86
2022/05/18 09:10:43;;;;;;;9.80;2.50;;;;;;;15.59;32.53;99105.09;105970;1274;22570;-91
2022/05/18 09:13:13;;;;;;;8.10;3.70;;;;;;;15.69;32.42;99105.30;106021;1274;22554;-89
2022/05/18 09:16:17;;;;;;;4.60;1.90;;;;;;;15.87;32.44;99106.83;106212;1275;25488;-89
2022/05/18 09:19:06;;;;;;;5.10;2.50;;;;;;;16.03;31.72;99104.66;105679;1278;25444;-87
2022/05/18 09:22:21;;;;;;;4.40;2.30;;;;;;;16.00;30.84;99105.97;106225;1278;24254;-87
2022/05/18 09:25:05;;;;;;;8.40;2.20;;;;;;;15.95;31.97;99105.25;105920;1278;22581;-87
2022/05/18 09:27:54;;;;;;;6.10;2.00;;;;;;;16.13;31.75;99102.42;106132;1278;22620;-87
2022/05/18 09:30:36;;;;;;;8.10;6.90;;;;;;;16.23;31.77;99105.13;106242;1274;24289;-86
2022/05/18 09:33:10;;;;;;;7.10;2.80;;;;;;;16.36;31.45;99102.63;106183;1275;22677;-86
2022/05/18 09:35:47;;;;;;;8.50;5.10;;;;;;;16.64;30.97;99102.42;106309;1274;25296;-88
2022/05/18 09:38:28;;;;;;;6.40;2.40;;;;;;;16.97;31.77;99103.73;106288;1274;22561;-84
2022/05/18 09:40:58;;;;;;;4.40;1.80;;;;;;;17.42;31.13;99110.40;106225;1274;25379;-86
2022/05/18 09:43:38;;;;;;;3.50;1.90;;;;;;;17.59;30.24;99104.08;106257;1274;22694;-86
2022/05/18 09:46:11;;;;;;;3.50;1.70;;;;;;;17.45;29.72;99099.96;106284;1274;22971;-82
2022/05/18 09:48:52;;;;;;;3.80;1.90;;;;;;;17.16;28.60;99096.44;106319;1274;22898;-83
2022/05/18 09:51:22;;;;;;;2.60;1.90;;;;;;;16.91;27.88;99097.77;106207;1274;24420;-84
2022/05/18 09:53:51;;;;;;;4.00;2.00;;;;;;;16.79;27.65;99101.19;106687;1274;22616;-82
2022/05/18 09:56:29;;;;;;;3.70;2.10;;;;;;;16.81;26.93;99099.40;106818;1276;22566;-82
2022/05/18 09:59:01;;;;;;;3.30;2.00;;;;;;;16.57;27.71;99098.75;106737;1278;24166;-82
2022/05/18 10:07:32;;;;;;;5.20;2.40;;;;;;;16.86;28.47;99092.90;106676;1275;24163;-82
2022/05/18 10:10:00;;;;;;;3.30;1.90;;;;;;;17.01;28.72;99090.95;106601;1276;23310;-82
2022/05/18 10:12:40;;;;;;;2.30;1.60;;;;;;;17.32;28.08;99090.46;106662;1277;22680;-83
2022/05/18 10:15:20;;;;;;;7.10;2.40;;;;;;;17.58;28.79;99089.72;106684;1274;22706;-83
2022/05/18 10:17:52;;;;;;;4.30;2.30;;;;;;;17.89;28.74;99091.44;106883;1274;22560;-83
2022/05/18 10:20:33;;;;;;;8.00;2.20;;;;;;;18.15;28.49;99086.72;106530;1274;276968;-84
2022/05/18 10:23:39;;;;;;;6.70;3.50;;;;;;;18.35;28.75;99089.65;106733;1274;25355;-82
2022/05/18 10:26:34;;;;;;;3.00;2.00;;;;;;;18.74;29.03;99083.84;106692;1274;25637;-83
2022/05/18 10:29:19;;;;;;;5.20;1.90;;;;;;;19.10;28.55;99077.88;106700;1274;22579;-79
2022/05/18 10:32:04;;;;;;;3.80;1.80;;;;;;;19.31;27.79;99082.23;106680;1274;22634;-79
2022/05/18 10:34:41;;;;;;;3.70;1.70;;;;;;;19.22;26.28;99080.10;106055;1274;24383;-78
2022/05/18 10:37:11;;;;;;;3.80;1.90;;;;;;;18.97;26.54;99079.20;106903;1274;23444;-79
2022/05/18 10:39:47;;;;;;;2.70;1.90;;;;;;;19.00;27.03;99075.27;106906;1274;22633;-84
2022/05/18 10:42:23;;;;;;;5.00;2.00;;;;;;;19.12;26.87;99074.36;106787;1274;22538;-81
2022/05/18 10:44:53;;;;;;;3.90;1.70;;;;;;;19.14;27.32;99074.68;106700;1274;22582;-81
2022/05/18 10:47:32;;;;;;;2.40;1.60;;;;;;;19.16;27.50;99075.48;106756;1274;22595;-81
2022/05/18 10:50:21;;;;;;;4.80;1.80;;;;;;;19.18;26.99;99072.82;106776;1274;22566;-79
2022/05/18 10:52:54;;;;;;;3.80;2.10;;;;;;;19.27;26.67;99068.69;106669;1276;22579;-79
2022/05/18 10:55:24;;;;;;;4.40;1.80;;;;;;;19.38;26.74;99065.30;106659;1276;22547;-79
2022/05/18 10:58:06;;;;;;;4.30;1.90;;;;;;;19.38;26.54;99063.11;106663;1276;22617;-80
2022/05/18 11:00:40;;;;;;;7.40;2.20;;;;;;;19.45;26.69;99066.98;107133;1276;22577;-81
2022/05/18 11:03:17;;;;;;;6.00;1.90;;;;;;;19.59;26.70;99059.27;106518;1276;23050;-79
2022/05/18 11:05:54;;;;;;;3.70;1.80;;;;;;;19.71;25.93;99059.24;106551;1276;24222;-81
2022/05/18 11:08:24;;;;;;;4.10;2.40;;;;;;;19.67;25.05;99057.65;107676;1276;25421;-82
2022/05/18 11:11:11;;;;;;;7.70;2.00;;;;;;;19.53;24.82;99056.00;106588;1276;25386;-79
2022/05/18 11:14:23;;;;;;;5.10;2.20;;;;;;;19.39;25.11;99056.30;106651;1276;24236;-80
2022/05/18 11:17:13;;;;;;;7.60;2.10;;;;;;;19.66;25.85;99055.73;106579;1276;23630;-81
2022/05/18 11:20:00;;;;;;;4.30;1.70;;;;;;;19.82;25.39;99053.64;108061;1276;22642;-80
2022/05/18 11:22:37;;;;;;;5.80;2.00;;;;;;;20.06;25.21;99046.42;108105;1276;24343;-81
2022/05/18 11:25:30;;;;;;;7.40;1.70;;;;;;;20.39;25.50;99050.38;107678;1276;22586;-81
2022/05/18 11:28:40;;;;;;;2.40;1.60;;;;;;;20.60;25.22;99042.08;106725;1276;24224;-82
2022/05/18 11:31:47;;;;;;;2.70;1.60;;;;;;;20.63;25.34;99037.40;106731;1276;22570;-82
2022/05/18 11:39:10;;;;;;;4.60;2.30;;;;;;;21.32;25.01;99033.95;106655;1276;22573;-81
2022/05/18 11:42:05;;;;;;;5.70;2.00;;;;;;;21.46;24.84;99039.18;106720;1274;25406;-80
2022/05/18 11:44:49;;;;;;;4.30;2.30;;;;;;;21.63;24.70;99036.29;106678;1274;24223;-83
2022/05/18 11:47:26;;;;;;;3.40;2.10;;;;;;;21.74;24.03;99035.52;106707;1274;22683;-82
2022/05/18 11:50:26;;;;;;;4.10;1.80;;;;;;;21.87;24.56;99037.33;106522;1274;25389;-83
2022/05/18 11:53:13;;;;;;;2.70;1.80;;;;;;;22.10;24.20;99034.01;106652;1274;25366;-84
2022/05/18 11:56:06;;;;;;;4.00;1.60;;;;;;;22.19;23.82;99032.89;106597;1277;22579;-82
2022/05/18 11:59:09;;;;;;;6.60;1.60;;;;;;;22.16;24.23;99034.05;106623;1274;22563;-83
2022/05/18 12:02:00;;;;;;;7.50;1.70;;;;;;;22.32;23.83;99034.98;106495;1274;22571;-80
2022/05/18 12:05:14;;;;;;;6.80;4.60;;;;;;;22.43;23.16;99028.08;105891;1274;22562;-83
2022/05/18 12:08:26;;;;;;;4.70;2.00;;;;;;;22.58;23.18;99035.95;105886;1281;22735;-84
2022/05/18 12:11:39;;;;;;;5.00;1.50;;;;;;;22.75;23.40;99039.14;105847;1281;22581;-81
2022/05/18 12:14:25;;;;;;;5.20;1.80;;;;;;;22.97;22.18;99036.46;105778;1281;22550;-85
2022/05/18 12:17:14;;;;;;;3.80;1.60;;;;;;;22.97;22.70;99038.33;105898;1281;22718;-84
2022/05/18 12:20:20;;;;;;;2.30;1.70;;;;;;;23.13;22.39;99036.05;105972;1284;22716;-84